sensor_id;sensor_type;location;lat;lon;timestamp;temperature;humidity
26952;DHT22;14507;52.418;13.398;2023-05-20T00:01:02;12.20;99.90
26952;DHT22;14507;52.418;13.398;2023-05-20T00:03:28;12.10;99.90
26952;DHT22;14507;52.418;13.398;2023-05-20T00:05:54;12.20;99.90
26952;DHT22;14507;52.418;13.398;2023-05-20T00:08:19;12.10;99.90
26952;DHT22;14507;52.418;13.398;2023-05-20T00:10:45;12.00;99.90
26952;DHT22;14507;52.418;13.398;2023-05-20T00:13:11;12.00;99.90
26952;DHT22;14507;52.418;13.398;2023-05-20T00:15:37;12.00;99.90
26952;DHT22;14507;52.418;13.398;2023-05-20T00:18:03;11.90;99.90
26952;DHT22;14507;52.418;13.398;2023-05-20T00:20:29;11.90;99.90
26952;DHT22;14507;52.418;13.398;2023-05-20T00:22:55;11.90;99.90
26952;DHT22;14507;52.418;13.398;2023-05-20T00:25:21;11.80;99.90
26952;DHT22;14507;52.418;13.398;2023-05-20T00:27:46;11.80;99.90
26952;DHT22;14507;52.418;13.398;2023-05-20T00:30:12;11.80;99.90
26952;DHT22;14507;52.418;13.398;2023-05-20T00:32:38;11.80;99.90
26952;DHT22;14507;52.418;13.398;2023-05-20T00:35:04;11.80;99.90
26952;DHT22;14507;52.418;13.398;2023-05-20T00:37:30;11.90;99.90
26952;DHT22;14507;52.418;13.398;2023-05-20T00:39:56;11.80;99.90
26952;DHT22;14507;52.418;13.398;2023-05-20T00:42:22;11.80;99.90
26952;DHT22;14507;52.418;13.398;2023-05-20T00:44:48;11.80;99.90
26952;DHT22;14507;52.418;13.398;2023-05-20T00:47:18;11.80;99.90
26952;DHT22;14507;52.418;13.398;2023-05-20T00:49:44;11.80;99.90
26952;DHT22;14507;52.418;13.398;2023-05-20T00:52:11;11.70;99.90
26952;DHT22;14507;52.418;13.398;2023-05-20T00:54:38;11.70;99.90
26952;DHT22;14507;52.418;13.398;2023-05-20T00:57:06;11.70;99.90
26952;DHT22;14507;52.418;13.398;2023-05-20T00:59:35;11.60;99.90
26952;DHT22;14507;52.418;13.398;2023-05-20T01:02:02;11.60;99.90
26952;DHT22;14507;52.418;13.398;2023-05-20T01:04:29;11.60;99.90
26952;DHT22;14507;52.418;13.398;2023-05-20T01:06:56;11.50;99.90
26952;DHT22;14507;52.418;13.398;2023-05-20T01:09:23;11.60;99.90
26952;DHT22;14507;52.418;13.398;2023-05-20T01:12:02;11.60;99.90
26952;DHT22;14507;52.418;13.398;2023-05-20T01:14:32;11.60;99.90
26952;DHT22;14507;52.418;13.398;2023-05-20T01:17:01;11.50;99.90
26952;DHT22;14507;52.418;13.398;2023-05-20T01:19:44;11.50;99.90
26952;DHT22;14507;52.418;13.398;2023-05-20T01:22:13;11.40;99.90
26952;DHT22;14507;52.418;13.398;2023-05-20T01:24:46;11.40;99.90
26952;DHT22;14507;52.418;13.398;2023-05-20T01:27:18;11.40;99.90
26952;DHT22;14507;52.418;13.398;2023-05-20T01:29:45;11.30;99.90
26952;DHT22;14507;52.418;13.398;2023-05-20T01:32:19;11.30;99.90
26952;DHT22;14507;52.418;13.398;2023-05-20T01:34:49;11.30;99.90
26952;DHT22;14507;52.418;13.398;2023-05-20T01:37:19;11.20;99.90
26952;DHT22;14507;52.418;13.398;2023-05-20T01:39:46;11.30;99.90
26952;DHT22;14507;52.418;13.398;2023-05-20T01:42:14;11.20;99.90
26952;DHT22;14507;52.418;13.398;2023-05-20T01:44:40;11.20;99.90
26952;DHT22;14507;52.418;13.398;2023-05-20T01:47:06;11.20;99.90
26952;DHT22;14507;52.418;13.398;2023-05-20T01:49:31;11.20;99.90
26952;DHT22;14507;52.418;13.398;2023-05-20T01:51:57;11.20;99.90
26952;DHT22;14507;52.418;13.398;2023-05-20T01:54:23;11.20;99.90
26952;DHT22;14507;52.418;13.398;2023-05-20T01:56:49;11.20;99.90
26952;DHT22;14507;52.418;13.398;2023-05-20T01:59:15;11.10;99.90
26952;DHT22;14507;52.418;13.398;2023-05-20T02:01:41;11.10;99.90
26952;DHT22;14507;52.418;13.398;2023-05-20T02:04:06;11.10;99.90
26952;DHT22;14507;52.418;13.398;2023-05-20T02:06:32;11.00;99.90
26952;DHT22;14507;52.418;13.398;2023-05-20T02:08:58;11.00;99.90
26952;DHT22;14507;52.418;13.398;2023-05-20T02:11:23;11.00;99.90
26952;DHT22;14507;52.418;13.398;2023-05-20T02:13:49;11.00;99.90
26952;DHT22;14507;52.418;13.398;2023-05-20T02:16:15;10.90;99.90
26952;DHT22;14507;52.418;13.398;2023-05-20T02:18:41;11.00;99.90
26952;DHT22;14507;52.418;13.398;2023-05-20T02:21:07;11.00;99.90
26952;DHT22;14507;52.418;13.398;2023-05-20T02:23:33;11.00;99.90
26952;DHT22;14507;52.418;13.398;2023-05-20T02:25:59;11.00;99.90
26952;DHT22;14507;52.418;13.398;2023-05-20T02:28:25;11.00;99.90
26952;DHT22;14507;52.418;13.398;2023-05-20T02:30:51;11.00;99.90
26952;DHT22;14507;52.418;13.398;2023-05-20T02:33:19;10.90;99.90
26952;DHT22;14507;52.418;13.398;2023-05-20T02:35:45;11.00;99.90
26952;DHT22;14507;52.418;13.398;2023-05-20T02:38:11;11.00;99.90
26952;DHT22;14507;52.418;13.398;2023-05-20T02:40:37;11.00;99.90
26952;DHT22;14507;52.418;13.398;2023-05-20T02:43:03;11.00;99.90
26952;DHT22;14507;52.418;13.398;2023-05-20T02:45:29;11.10;99.90
26952;DHT22;14507;52.418;13.398;2023-05-20T02:47:55;11.10;99.90
26952;DHT22;14507;52.418;13.398;2023-05-20T02:50:20;11.10;99.90
26952;DHT22;14507;52.418;13.398;2023-05-20T02:52:46;11.20;99.90
26952;DHT22;14507;52.418;13.398;2023-05-20T02:55:13;11.20;99.90
26952;DHT22;14507;52.418;13.398;2023-05-20T02:57:38;11.20;99.90
26952;DHT22;14507;52.418;13.398;2023-05-20T03:00:05;11.10;99.90
26952;DHT22;14507;52.418;13.398;2023-05-20T03:02:32;11.10;99.90
26952;DHT22;14507;52.418;13.398;2023-05-20T03:04:58;11.10;99.90
26952;DHT22;14507;52.418;13.398;2023-05-20T03:07:24;11.20;99.90
26952;DHT22;14507;52.418;13.398;2023-05-20T03:09:50;11.20;99.90
26952;DHT22;14507;52.418;13.398;2023-05-20T03:12:16;11.20;99.90
26952;DHT22;14507;52.418;13.398;2023-05-20T03:14:42;11.30;99.90
26952;DHT22;14507;52.418;13.398;2023-05-20T03:17:08;11.30;99.90
26952;DHT22;14507;52.418;13.398;2023-05-20T03:19:34;11.30;99.90
26952;DHT22;14507;52.418;13.398;2023-05-20T03:22:00;11.30;99.90
26952;DHT22;14507;52.418;13.398;2023-05-20T03:24:26;11.30;99.90
26952;DHT22;14507;52.418;13.398;2023-05-20T03:26:52;11.30;99.90
26952;DHT22;14507;52.418;13.398;2023-05-20T03:29:17;11.30;99.90
26952;DHT22;14507;52.418;13.398;2023-05-20T03:31:43;11.30;99.90
26952;DHT22;14507;52.418;13.398;2023-05-20T03:34:09;11.30;99.90
26952;DHT22;14507;52.418;13.398;2023-05-20T03:36:34;11.30;99.90
26952;DHT22;14507;52.418;13.398;2023-05-20T03:39:00;11.40;99.90
26952;DHT22;14507;52.418;13.398;2023-05-20T03:41:29;11.40;99.90
26952;DHT22;14507;52.418;13.398;2023-05-20T03:43:54;11.40;99.90
26952;DHT22;14507;52.418;13.398;2023-05-20T03:46:20;11.40;99.90
26952;DHT22;14507;52.418;13.398;2023-05-20T03:48:46;11.40;99.90
26952;DHT22;14507;52.418;13.398;2023-05-20T03:51:11;11.40;99.90
26952;DHT22;14507;52.418;13.398;2023-05-20T03:53:37;11.40;99.90
26952;DHT22;14507;52.418;13.398;2023-05-20T03:56:03;11.40;99.90
26952;DHT22;14507;52.418;13.398;2023-05-20T03:58:28;11.40;99.90
26952;DHT22;14507;52.418;13.398;2023-05-20T04:00:56;11.40;99.90
26952;DHT22;14507;52.418;13.398;2023-05-20T04:03:21;11.50;99.90
26952;DHT22;14507;52.418;13.398;2023-05-20T04:05:48;11.40;99.90
26952;DHT22;14507;52.418;13.398;2023-05-20T04:08:13;11.40;99.90
26952;DHT22;14507;52.418;13.398;2023-05-20T04:10:43;11.50;99.90
26952;DHT22;14507;52.418;13.398;2023-05-20T04:13:09;11.50;99.90
26952;DHT22;14507;52.418;13.398;2023-05-20T04:15:35;11.50;99.90
26952;DHT22;14507;52.418;13.398;2023-05-20T04:18:01;11.50;99.90
26952;DHT22;14507;52.418;13.398;2023-05-20T04:20:27;11.50;99.90
26952;DHT22;14507;52.418;13.398;2023-05-20T04:22:53;11.60;99.90
26952;DHT22;14507;52.418;13.398;2023-05-20T04:25:19;11.60;99.90
26952;DHT22;14507;52.418;13.398;2023-05-20T04:27:45;11.60;99.90
26952;DHT22;14507;52.418;13.398;2023-05-20T04:30:11;11.60;99.90
26952;DHT22;14507;52.418;13.398;2023-05-20T04:32:37;11.60;99.90
26952;DHT22;14507;52.418;13.398;2023-05-20T04:35:04;11.70;99.90
26952;DHT22;14507;52.418;13.398;2023-05-20T04:37:36;11.60;99.90
26952;DHT22;14507;52.418;13.398;2023-05-20T04:40:01;11.70;99.90
26952;DHT22;14507;52.418;13.398;2023-05-20T04:42:34;11.70;99.90
26952;DHT22;14507;52.418;13.398;2023-05-20T04:44:59;11.70;99.90
26952;DHT22;14507;52.418;13.398;2023-05-20T04:47:29;11.70;99.90
26952;DHT22;14507;52.418;13.398;2023-05-20T04:49:55;11.70;99.90
26952;DHT22;14507;52.418;13.398;2023-05-20T04:52:22;11.70;99.90
26952;DHT22;14507;52.418;13.398;2023-05-20T04:54:48;11.70;99.90
26952;DHT22;14507;52.418;13.398;2023-05-20T04:57:15;11.70;99.90
26952;DHT22;14507;52.418;13.398;2023-05-20T04:59:41;11.70;99.90
26952;DHT22;14507;52.418;13.398;2023-05-20T05:02:07;11.70;99.90
26952;DHT22;14507;52.418;13.398;2023-05-20T05:04:33;11.70;99.90
26952;DHT22;14507;52.418;13.398;2023-05-20T05:06:58;11.70;99.90
26952;DHT22;14507;52.418;13.398;2023-05-20T05:09:24;11.70;99.90
26952;DHT22;14507;52.418;13.398;2023-05-20T05:11:49;11.70;99.90
26952;DHT22;14507;52.418;13.398;2023-05-20T05:14:16;11.70;99.90
26952;DHT22;14507;52.418;13.398;2023-05-20T05:16:41;11.70;99.90
26952;DHT22;14507;52.418;13.398;2023-05-20T05:19:07;11.80;99.90
26952;DHT22;14507;52.418;13.398;2023-05-20T05:21:33;11.80;99.90
26952;DHT22;14507;52.418;13.398;2023-05-20T05:24:05;11.80;99.90
26952;DHT22;14507;52.418;13.398;2023-05-20T05:26:31;11.80;99.90
26952;DHT22;14507;52.418;13.398;2023-05-20T05:28:57;11.80;99.90
26952;DHT22;14507;52.418;13.398;2023-05-20T05:31:22;11.80;99.90
26952;DHT22;14507;52.418;13.398;2023-05-20T05:33:48;11.80;99.90
26952;DHT22;14507;52.418;13.398;2023-05-20T05:36:14;11.80;99.90
26952;DHT22;14507;52.418;13.398;2023-05-20T05:38:40;11.80;99.90
26952;DHT22;14507;52.418;13.398;2023-05-20T05:41:05;11.80;99.90
26952;DHT22;14507;52.418;13.398;2023-05-20T05:43:31;11.90;99.90
26952;DHT22;14507;52.418;13.398;2023-05-20T05:45:57;11.90;99.90
26952;DHT22;14507;52.418;13.398;2023-05-20T05:48:22;11.90;99.90
26952;DHT22;14507;52.418;13.398;2023-05-20T05:50:48;11.90;99.90
26952;DHT22;14507;52.418;13.398;2023-05-20T05:53:14;12.00;99.90
26952;DHT22;14507;52.418;13.398;2023-05-20T05:55:39;12.00;99.90
26952;DHT22;14507;52.418;13.398;2023-05-20T05:58:05;12.00;99.90
26952;DHT22;14507;52.418;13.398;2023-05-20T06:00:31;12.10;99.90
26952;DHT22;14507;52.418;13.398;2023-05-20T06:02:56;12.10;99.90
26952;DHT22;14507;52.418;13.398;2023-05-20T06:05:22;12.10;99.90
26952;DHT22;14507;52.418;13.398;2023-05-20T06:07:47;12.10;99.90
26952;DHT22;14507;52.418;13.398;2023-05-20T06:10:13;12.10;99.90
26952;DHT22;14507;52.418;13.398;2023-05-20T06:12:39;12.10;99.90
26952;DHT22;14507;52.418;13.398;2023-05-20T06:15:05;12.10;99.90
26952;DHT22;14507;52.418;13.398;2023-05-20T06:17:31;12.10;99.90
26952;DHT22;14507;52.418;13.398;2023-05-20T06:19:57;12.10;99.90
26952;DHT22;14507;52.418;13.398;2023-05-20T06:22:23;12.20;99.90
26952;DHT22;14507;52.418;13.398;2023-05-20T06:24:49;12.30;99.90
26952;DHT22;14507;52.418;13.398;2023-05-20T06:27:14;12.20;99.90
26952;DHT22;14507;52.418;13.398;2023-05-20T06:29:40;12.30;99.90
26952;DHT22;14507;52.418;13.398;2023-05-20T06:32:06;12.30;99.90
26952;DHT22;14507;52.418;13.398;2023-05-20T06:34:32;12.30;99.90
26952;DHT22;14507;52.418;13.398;2023-05-20T06:36:58;12.40;99.90
26952;DHT22;14507;52.418;13.398;2023-05-20T06:39:24;12.50;99.90
26952;DHT22;14507;52.418;13.398;2023-05-20T06:41:49;12.50;99.90
26952;DHT22;14507;52.418;13.398;2023-05-20T06:44:17;12.60;99.90
26952;DHT22;14507;52.418;13.398;2023-05-20T06:46:43;12.60;99.90
26952;DHT22;14507;52.418;13.398;2023-05-20T06:49:08;12.60;99.90
26952;DHT22;14507;52.418;13.398;2023-05-20T06:51:34;12.70;99.90
26952;DHT22;14507;52.418;13.398;2023-05-20T06:54:00;12.70;99.90
26952;DHT22;14507;52.418;13.398;2023-05-20T06:56:26;12.80;99.90
26952;DHT22;14507;52.418;13.398;2023-05-20T06:58:51;12.90;99.90
26952;DHT22;14507;52.418;13.398;2023-05-20T07:01:17;12.90;99.90
26952;DHT22;14507;52.418;13.398;2023-05-20T07:03:43;12.90;99.90
26952;DHT22;14507;52.418;13.398;2023-05-20T07:06:09;13.00;99.90
26952;DHT22;14507;52.418;13.398;2023-05-20T07:08:35;13.00;99.90
26952;DHT22;14507;52.418;13.398;2023-05-20T07:11:00;13.00;99.90
26952;DHT22;14507;52.418;13.398;2023-05-20T07:13:26;13.00;99.90
26952;DHT22;14507;52.418;13.398;2023-05-20T07:15:52;13.00;99.90
26952;DHT22;14507;52.418;13.398;2023-05-20T07:18:20;13.10;99.90
26952;DHT22;14507;52.418;13.398;2023-05-20T07:20:46;13.20;99.90
26952;DHT22;14507;52.418;13.398;2023-05-20T07:23:12;13.20;99.90
26952;DHT22;14507;52.418;13.398;2023-05-20T07:25:37;13.30;99.90
26952;DHT22;14507;52.418;13.398;2023-05-20T07:28:03;13.30;99.90
26952;DHT22;14507;52.418;13.398;2023-05-20T07:30:29;13.30;99.90
26952;DHT22;14507;52.418;13.398;2023-05-20T07:32:54;13.30;99.90
26952;DHT22;14507;52.418;13.398;2023-05-20T07:35:20;13.40;99.90
26952;DHT22;14507;52.418;13.398;2023-05-20T07:37:46;13.50;99.90
26952;DHT22;14507;52.418;13.398;2023-05-20T07:40:12;13.60;99.90
26952;DHT22;14507;52.418;13.398;2023-05-20T07:42:39;13.70;99.90
26952;DHT22;14507;52.418;13.398;2023-05-20T07:45:05;13.70;99.90
26952;DHT22;14507;52.418;13.398;2023-05-20T07:47:31;13.80;99.90
26952;DHT22;14507;52.418;13.398;2023-05-20T07:49:57;13.90;99.90
26952;DHT22;14507;52.418;13.398;2023-05-20T07:52:23;13.90;99.90
26952;DHT22;14507;52.418;13.398;2023-05-20T07:54:48;13.90;99.90
26952;DHT22;14507;52.418;13.398;2023-05-20T07:57:14;14.00;99.90
26952;DHT22;14507;52.418;13.398;2023-05-20T07:59:39;14.10;99.90
26952;DHT22;14507;52.418;13.398;2023-05-20T08:02:06;14.20;99.90
26952;DHT22;14507;52.418;13.398;2023-05-20T08:04:32;14.20;99.90
26952;DHT22;14507;52.418;13.398;2023-05-20T08:07:02;14.20;99.90
26952;DHT22;14507;52.418;13.398;2023-05-20T08:09:33;14.20;99.90
26952;DHT22;14507;52.418;13.398;2023-05-20T08:11:59;14.30;99.90
26952;DHT22;14507;52.418;13.398;2023-05-20T08:14:24;14.40;99.90
26952;DHT22;14507;52.418;13.398;2023-05-20T08:16:50;14.40;99.90
26952;DHT22;14507;52.418;13.398;2023-05-20T08:21:41;14.60;99.90
26952;DHT22;14507;52.418;13.398;2023-05-20T08:24:07;14.60;99.90
26952;DHT22;14507;52.418;13.398;2023-05-20T08:26:32;14.70;99.90
26952;DHT22;14507;52.418;13.398;2023-05-20T08:28:58;14.70;99.90
26952;DHT22;14507;52.418;13.398;2023-05-20T08:31:24;14.70;99.90
26952;DHT22;14507;52.418;13.398;2023-05-20T08:33:49;14.70;99.90
26952;DHT22;14507;52.418;13.398;2023-05-20T08:36:15;14.70;99.90
26952;DHT22;14507;52.418;13.398;2023-05-20T08:38:41;14.70;99.90
26952;DHT22;14507;52.418;13.398;2023-05-20T08:41:06;14.70;99.90
26952;DHT22;14507;52.418;13.398;2023-05-20T08:43:32;14.90;99.90
26952;DHT22;14507;52.418;13.398;2023-05-20T08:45:58;14.80;99.90
26952;DHT22;14507;52.418;13.398;2023-05-20T08:48:27;14.80;99.90
26952;DHT22;14507;52.418;13.398;2023-05-20T08:50:55;14.80;99.90
26952;DHT22;14507;52.418;13.398;2023-05-20T08:53:22;14.80;99.90
26952;DHT22;14507;52.418;13.398;2023-05-20T08:55:59;14.80;99.90
26952;DHT22;14507;52.418;13.398;2023-05-20T08:58:28;14.80;99.90
26952;DHT22;14507;52.418;13.398;2023-05-20T09:00:53;14.80;99.90
26952;DHT22;14507;52.418;13.398;2023-05-20T09:03:19;14.70;99.90
26952;DHT22;14507;52.418;13.398;2023-05-20T09:05:46;14.80;99.90
26952;DHT22;14507;52.418;13.398;2023-05-20T09:08:12;15.00;99.90
26952;DHT22;14507;52.418;13.398;2023-05-20T09:10:39;15.10;99.90
26952;DHT22;14507;52.418;13.398;2023-05-20T09:13:06;15.10;99.90
26952;DHT22;14507;52.418;13.398;2023-05-20T09:15:33;15.10;99.90
26952;DHT22;14507;52.418;13.398;2023-05-20T09:18:04;15.00;99.90
26952;DHT22;14507;52.418;13.398;2023-05-20T09:20:33;15.00;99.90
26952;DHT22;14507;52.418;13.398;2023-05-20T09:23:00;14.90;99.90
26952;DHT22;14507;52.418;13.398;2023-05-20T09:25:26;14.90;99.90
26952;DHT22;14507;52.418;13.398;2023-05-20T09:27:52;14.90;99.90
26952;DHT22;14507;52.418;13.398;2023-05-20T09:30:18;14.90;99.90
26952;DHT22;14507;52.418;13.398;2023-05-20T09:32:44;14.90;99.90
26952;DHT22;14507;52.418;13.398;2023-05-20T09:35:13;15.00;99.90
26952;DHT22;14507;52.418;13.398;2023-05-20T09:37:42;15.10;99.90
26952;DHT22;14507;52.418;13.398;2023-05-20T09:40:11;15.20;99.90
26952;DHT22;14507;52.418;13.398;2023-05-20T09:42:51;15.30;99.90
26952;DHT22;14507;52.418;13.398;2023-05-20T09:45:18;15.30;99.90
26952;DHT22;14507;52.418;13.398;2023-05-20T09:47:45;15.30;99.90
26952;DHT22;14507;52.418;13.398;2023-05-20T09:50:12;15.30;99.90
26952;DHT22;14507;52.418;13.398;2023-05-20T09:52:39;15.20;99.90
26952;DHT22;14507;52.418;13.398;2023-05-20T09:55:06;15.20;99.90
26952;DHT22;14507;52.418;13.398;2023-05-20T09:57:33;15.20;99.90
26952;DHT22;14507;52.418;13.398;2023-05-20T09:59:59;15.20;99.90
26952;DHT22;14507;52.418;13.398;2023-05-20T10:02:26;15.20;99.90
26952;DHT22;14507;52.418;13.398;2023-05-20T10:04:53;15.20;99.90
26952;DHT22;14507;52.418;13.398;2023-05-20T10:15:35;15.60;99.90
26952;DHT22;14507;52.418;13.398;2023-05-20T10:20:49;15.90;99.90
26952;DHT22;14507;52.418;13.398;2023-05-20T10:23:23;15.90;99.90
26952;DHT22;14507;52.418;13.398;2023-05-20T10:25:52;15.90;99.90
26952;DHT22;14507;52.418;13.398;2023-05-20T10:28:32;15.90;99.90
26952;DHT22;14507;52.418;13.398;2023-05-20T10:30:59;15.90;99.90
26952;DHT22;14507;52.418;13.398;2023-05-20T10:33:26;16.10;99.90
26952;DHT22;14507;52.418;13.398;2023-05-20T10:35:58;16.30;99.90
26952;DHT22;14507;52.418;13.398;2023-05-20T10:38:24;16.40;99.90
26952;DHT22;14507;52.418;13.398;2023-05-20T10:40:51;16.60;99.90
26952;DHT22;14507;52.418;13.398;2023-05-20T10:43:25;16.40;99.90
26952;DHT22;14507;52.418;13.398;2023-05-20T10:45:53;16.40;99.90
26952;DHT22;14507;52.418;13.398;2023-05-20T10:48:23;16.60;99.90
26952;DHT22;14507;52.418;13.398;2023-05-20T10:50:49;16.90;99.90
26952;DHT22;14507;52.418;13.398;2023-05-20T10:53:15;16.80;99.90
26952;DHT22;14507;52.418;13.398;2023-05-20T10:55:47;16.80;99.90
26952;DHT22;14507;52.418;13.398;2023-05-20T10:58:16;16.70;99.90
26952;DHT22;14507;52.418;13.398;2023-05-20T11:00:42;16.70;99.90
26952;DHT22;14507;52.418;13.398;2023-05-20T11:03:08;16.70;99.90
26952;DHT22;14507;52.418;13.398;2023-05-20T11:05:35;16.70;99.90
26952;DHT22;14507;52.418;13.398;2023-05-20T11:08:05;16.80;99.90
26952;DHT22;14507;52.418;13.398;2023-05-20T11:10:33;16.90;99.90
26952;DHT22;14507;52.418;13.398;2023-05-20T11:13:00;16.90;99.90
26952;DHT22;14507;52.418;13.398;2023-05-20T11:15:26;17.00;99.90
26952;DHT22;14507;52.418;13.398;2023-05-20T11:17:53;17.30;99.90
26952;DHT22;14507;52.418;13.398;2023-05-20T11:20:20;17.30;99.90
26952;DHT22;14507;52.418;13.398;2023-05-20T11:22:46;17.30;99.90
26952;DHT22;14507;52.418;13.398;2023-05-20T11:25:13;17.40;99.90
26952;DHT22;14507;52.418;13.398;2023-05-20T11:27:39;17.50;99.90
26952;DHT22;14507;52.418;13.398;2023-05-20T11:30:05;17.60;99.90
26952;DHT22;14507;52.418;13.398;2023-05-20T11:32:31;17.70;99.90
26952;DHT22;14507;52.418;13.398;2023-05-20T11:34:57;17.80;99.90
26952;DHT22;14507;52.418;13.398;2023-05-20T11:37:23;17.90;99.90
26952;DHT22;14507;52.418;13.398;2023-05-20T11:40:02;17.80;99.90
26952;DHT22;14507;52.418;13.398;2023-05-20T11:42:32;17.70;99.90
26952;DHT22;14507;52.418;13.398;2023-05-20T11:45:01;17.70;99.90
26952;DHT22;14507;52.418;13.398;2023-05-20T11:47:27;17.70;99.90
26952;DHT22;14507;52.418;13.398;2023-05-20T11:49:53;17.60;99.90
26952;DHT22;14507;52.418;13.398;2023-05-20T11:52:20;17.50;99.90
26952;DHT22;14507;52.418;13.398;2023-05-20T11:54:53;17.70;99.90
26952;DHT22;14507;52.418;13.398;2023-05-20T11:57:19;17.80;99.90
26952;DHT22;14507;52.418;13.398;2023-05-20T11:59:46;18.00;99.90
26952;DHT22;14507;52.418;13.398;2023-05-20T12:02:11;18.00;99.90
26952;DHT22;14507;52.418;13.398;2023-05-20T12:04:37;18.00;99.90
26952;DHT22;14507;52.418;13.398;2023-05-20T12:07:03;18.10;99.90
26952;DHT22;14507;52.418;13.398;2023-05-20T12:09:31;18.30;99.90
26952;DHT22;14507;52.418;13.398;2023-05-20T12:11:56;18.40;99.70
26952;DHT22;14507;52.418;13.398;2023-05-20T12:14:23;18.40;99.30
26952;DHT22;14507;52.418;13.398;2023-05-20T12:16:49;18.40;99.70
26952;DHT22;14507;52.418;13.398;2023-05-20T12:19:15;18.30;99.30
26952;DHT22;14507;52.418;13.398;2023-05-20T12:21:40;18.30;99.70
26952;DHT22;14507;52.418;13.398;2023-05-20T12:24:06;18.30;99.80
26952;DHT22;14507;52.418;13.398;2023-05-20T12:26:33;18.30;99.70
26952;DHT22;14507;52.418;13.398;2023-05-20T12:28:59;18.30;99.90
26952;DHT22;14507;52.418;13.398;2023-05-20T12:31:25;18.40;99.60
26952;DHT22;14507;52.418;13.398;2023-05-20T12:33:51;18.40;99.70
26952;DHT22;14507;52.418;13.398;2023-05-20T12:36:16;18.50;99.90
26952;DHT22;14507;52.418;13.398;2023-05-20T12:38:43;18.50;99.30
26952;DHT22;14507;52.418;13.398;2023-05-20T12:41:09;18.40;99.70
26952;DHT22;14507;52.418;13.398;2023-05-20T12:43:35;18.50;99.50
26952;DHT22;14507;52.418;13.398;2023-05-20T12:46:04;18.70;99.60
26952;DHT22;14507;52.418;13.398;2023-05-20T12:48:30;18.80;99.50
26952;DHT22;14507;52.418;13.398;2023-05-20T12:50:55;18.90;98.90
26952;DHT22;14507;52.418;13.398;2023-05-20T12:53:21;18.90;99.60
26952;DHT22;14507;52.418;13.398;2023-05-20T12:55:47;18.80;98.70
26952;DHT22;14507;52.418;13.398;2023-05-20T12:58:12;18.70;99.10
26952;DHT22;14507;52.418;13.398;2023-05-20T13:00:38;18.80;99.60
26952;DHT22;14507;52.418;13.398;2023-05-20T13:03:03;18.80;99.10
26952;DHT22;14507;52.418;13.398;2023-05-20T13:05:29;18.80;99.20
26952;DHT22;14507;52.418;13.398;2023-05-20T13:07:55;18.80;99.30
26952;DHT22;14507;52.418;13.398;2023-05-20T13:10:20;18.80;98.90
26952;DHT22;14507;52.418;13.398;2023-05-20T13:12:46;18.80;99.40
26952;DHT22;14507;52.418;13.398;2023-05-20T13:15:12;18.70;99.40
26952;DHT22;14507;52.418;13.398;2023-05-20T13:17:39;18.60;99.50
26952;DHT22;14507;52.418;13.398;2023-05-20T13:20:05;18.50;99.30
26952;DHT22;14507;52.418;13.398;2023-05-20T13:22:32;18.60;99.80
26952;DHT22;14507;52.418;13.398;2023-05-20T13:24:57;18.60;99.20
26952;DHT22;14507;52.418;13.398;2023-05-20T13:27:23;18.80;99.40
26952;DHT22;14507;52.418;13.398;2023-05-20T13:29:49;18.70;99.40
26952;DHT22;14507;52.418;13.398;2023-05-20T13:32:14;18.70;99.20
26952;DHT22;14507;52.418;13.398;2023-05-20T13:34:40;18.80;99.80
26952;DHT22;14507;52.418;13.398;2023-05-20T13:37:06;18.90;99.20
26952;DHT22;14507;52.418;13.398;2023-05-20T13:39:31;18.90;99.10
26952;DHT22;14507;52.418;13.398;2023-05-20T13:41:58;18.80;99.20
26952;DHT22;14507;52.418;13.398;2023-05-20T13:44:23;18.80;99.30
26952;DHT22;14507;52.418;13.398;2023-05-20T13:46:49;18.80;99.40
26952;DHT22;14507;52.418;13.398;2023-05-20T13:49:15;18.70;99.30
26952;DHT22;14507;52.418;13.398;2023-05-20T13:51:40;18.80;99.30
26952;DHT22;14507;52.418;13.398;2023-05-20T13:54:06;18.90;99.50
26952;DHT22;14507;52.418;13.398;2023-05-20T13:56:32;19.00;99.20
26952;DHT22;14507;52.418;13.398;2023-05-20T13:58:58;19.00;98.90
26952;DHT22;14507;52.418;13.398;2023-05-20T14:01:23;19.00;99.10
26952;DHT22;14507;52.418;13.398;2023-05-20T14:03:49;19.00;99.00
26952;DHT22;14507;52.418;13.398;2023-05-20T14:06:15;19.10;99.10
26952;DHT22;14507;52.418;13.398;2023-05-20T14:08:46;19.10;98.90
26952;DHT22;14507;52.418;13.398;2023-05-20T14:11:11;19.00;99.00
26952;DHT22;14507;52.418;13.398;2023-05-20T14:13:37;18.90;99.00
26952;DHT22;14507;52.418;13.398;2023-05-20T14:16:03;19.00;99.20
26952;DHT22;14507;52.418;13.398;2023-05-20T14:18:28;19.00;99.20
26952;DHT22;14507;52.418;13.398;2023-05-20T14:20:54;19.00;99.00
26952;DHT22;14507;52.418;13.398;2023-05-20T14:23:20;19.00;98.90
26952;DHT22;14507;52.418;13.398;2023-05-20T14:25:46;19.10;98.90
26952;DHT22;14507;52.418;13.398;2023-05-20T14:28:12;19.10;98.90
26952;DHT22;14507;52.418;13.398;2023-05-20T14:30:38;19.20;98.70
26952;DHT22;14507;52.418;13.398;2023-05-20T14:33:03;19.20;98.90
26952;DHT22;14507;52.418;13.398;2023-05-20T14:35:29;19.30;98.80
26952;DHT22;14507;52.418;13.398;2023-05-20T14:37:55;19.30;98.60
26952;DHT22;14507;52.418;13.398;2023-05-20T14:40:20;19.30;98.50
26952;DHT22;14507;52.418;13.398;2023-05-20T14:42:46;19.30;98.40
26952;DHT22;14507;52.418;13.398;2023-05-20T14:45:12;19.30;98.40
26952;DHT22;14507;52.418;13.398;2023-05-20T14:47:37;19.40;98.50
26952;DHT22;14507;52.418;13.398;2023-05-20T14:50:05;19.50;98.60
26952;DHT22;14507;52.418;13.398;2023-05-20T14:52:31;19.60;98.20
26952;DHT22;14507;52.418;13.398;2023-05-20T14:54:56;19.70;98.10
26952;DHT22;14507;52.418;13.398;2023-05-20T14:57:22;19.60;98.20
26952;DHT22;14507;52.418;13.398;2023-05-20T14:59:48;19.70;98.00
26952;DHT22;14507;52.418;13.398;2023-05-20T15:02:16;19.70;98.20
26952;DHT22;14507;52.418;13.398;2023-05-20T15:04:42;19.70;98.30
26952;DHT22;14507;52.418;13.398;2023-05-20T15:07:10;19.60;97.90
26952;DHT22;14507;52.418;13.398;2023-05-20T15:09:36;19.60;98.20
26952;DHT22;14507;52.418;13.398;2023-05-20T15:12:02;19.60;98.00
26952;DHT22;14507;52.418;13.398;2023-05-20T15:14:28;19.60;98.10
26952;DHT22;14507;52.418;13.398;2023-05-20T15:16:53;19.50;98.20
26952;DHT22;14507;52.418;13.398;2023-05-20T15:19:19;19.60;98.10
26952;DHT22;14507;52.418;13.398;2023-05-20T15:21:45;19.50;98.20
26952;DHT22;14507;52.418;13.398;2023-05-20T15:24:10;19.60;98.20